ETH825 HAAB-FMCH
Flight info
| Callsign | ETH825 |
|---|---|
| Flight time | N/A |
| Altitude | 41000 |
| Route | IMKIT4B IMKIT UT129 ALEMU/N0487F400 UN301 MOV UL431 EGPET/N0484F410 UT913 KINAN KINAN1V |
| Aircraft | A359/H-SDE2E3GHIJ3J4J5LM1ORWXY/LB1D1 |
Departure
| Time | 2026-05-01 12:45 |
|---|---|
| Airport | Addis Ababa Bole International Airport (HAAB) |
Arrival
| Time | N/A |
|---|---|
| Airport | Prince Said Ibrahim International Airport (FMCH) |
| Time | Latitude | Longitude | Altitude | Speed | Heading |
|---|---|---|---|---|---|
| 2026-05-01 12:21 | 8.98319 | 38.80059 | 7624 ft | 0 kts | 349° |
| 2026-05-01 12:28 | 8.98320 | 38.80059 | 7628 ft | 1 kts | 345° |
| 2026-05-01 12:28 | 8.98325 | 38.80056 | 7628 ft | 0 kts | 345° |
| 2026-05-01 12:28 | 8.98326 | 38.80056 | 7627 ft | 0 kts | 345° |
| 2026-05-01 12:30 | 8.98309 | 38.80061 | 7627 ft | 3 kts | 331° |
| 2026-05-01 12:31 | 8.98293 | 38.80073 | 7635 ft | 3 kts | 309° |
| 2026-05-01 12:31 | 8.98283 | 38.80090 | 7634 ft | 3 kts | 288° |
| 2026-05-01 12:31 | 8.98279 | 38.80110 | 7634 ft | 3 kts | 266° |
| 2026-05-01 12:31 | 8.98281 | 38.80122 | 7635 ft | 0 kts | 255° |
| 2026-05-01 12:35 | 8.98270 | 38.80112 | 7628 ft | 4 kts | 216° |
| 2026-05-01 12:35 | 8.98215 | 38.80112 | 7627 ft | 9 kts | 168° |
| 2026-05-01 12:35 | 8.98158 | 38.80126 | 7627 ft | 8 kts | 165° |
| 2026-05-01 12:36 | 8.98088 | 38.80146 | 7628 ft | 12 kts | 164° |
| 2026-05-01 12:36 | 8.98014 | 38.80167 | 7629 ft | 10 kts | 163° |
| 2026-05-01 12:36 | 8.97980 | 38.80200 | 7629 ft | 5 kts | 105° |
| 2026-05-01 12:36 | 8.97982 | 38.80229 | 7630 ft | 4 kts | 79° |
| 2026-05-01 12:37 | 8.97991 | 38.80262 | 7630 ft | 5 kts | 76° |
| 2026-05-01 12:37 | 8.97998 | 38.80290 | 7630 ft | 4 kts | 75° |
| 2026-05-01 12:37 | 8.98011 | 38.80337 | 7630 ft | 9 kts | 73° |
| 2026-05-01 12:37 | 8.98033 | 38.80406 | 7629 ft | 11 kts | 74° |
| 2026-05-01 12:38 | 8.98056 | 38.80483 | 7628 ft | 11 kts | 74° |
| 2026-05-01 12:38 | 8.98076 | 38.80555 | 7628 ft | 10 kts | 74° |
| 2026-05-01 12:38 | 8.98095 | 38.80620 | 7628 ft | 9 kts | 74° |
| 2026-05-01 12:38 | 8.98112 | 38.80681 | 7627 ft | 9 kts | 74° |
| 2026-05-01 12:39 | 8.98129 | 38.80742 | 7627 ft | 9 kts | 74° |
| 2026-05-01 12:39 | 8.98145 | 38.80802 | 7626 ft | 9 kts | 74° |
| 2026-05-01 12:39 | 8.98163 | 38.80858 | 7626 ft | 8 kts | 71° |
| 2026-05-01 12:39 | 8.98179 | 38.80905 | 7627 ft | 6 kts | 71° |
| 2026-05-01 12:40 | 8.98190 | 38.80943 | 7627 ft | 6 kts | 75° |
| 2026-05-01 12:40 | 8.98203 | 38.80990 | 7627 ft | 7 kts | 74° |
| 2026-05-01 12:40 | 8.98217 | 38.81040 | 7628 ft | 10 kts | 73° |
| 2026-05-01 12:40 | 8.98239 | 38.81111 | 7629 ft | 11 kts | 73° |
| 2026-05-01 12:41 | 8.98264 | 38.81193 | 7627 ft | 13 kts | 71° |
| 2026-05-01 12:41 | 8.98289 | 38.81279 | 7627 ft | 12 kts | 73° |
| 2026-05-01 12:41 | 8.98311 | 38.81354 | 7627 ft | 10 kts | 73° |
| 2026-05-01 12:41 | 8.98326 | 38.81415 | 7627 ft | 8 kts | 85° |
| 2026-05-01 12:42 | 8.98313 | 38.81463 | 7628 ft | 6 kts | 121° |
| 2026-05-01 12:42 | 8.98290 | 38.81497 | 7628 ft | 5 kts | 124° |
| 2026-05-01 12:42 | 8.98264 | 38.81534 | 7628 ft | 8 kts | 126° |
| 2026-05-01 12:42 | 8.98228 | 38.81578 | 7628 ft | 8 kts | 141° |
| 2026-05-01 12:43 | 8.98188 | 38.81581 | 7628 ft | 5 kts | 201° |
| 2026-05-01 12:43 | 8.98175 | 38.81564 | 7628 ft | 2 kts | 243° |
| 2026-05-01 12:43 | 8.98173 | 38.81558 | 7628 ft | 0 kts | 248° |
| 2026-05-01 12:43 | 8.98172 | 38.81555 | 7628 ft | 2 kts | 248° |
| 2026-05-01 12:44 | 8.98162 | 38.81525 | 7627 ft | 6 kts | 252° |
| 2026-05-01 12:44 | 8.98124 | 38.81393 | 7626 ft | 42 kts | 254° |
| 2026-05-01 12:44 | 8.97721 | 38.80028 | 7630 ft | 152 kts | 256° |
| 2026-05-01 12:45 | 8.97073 | 38.77748 | 8686 ft | 173 kts | 252° |
| 2026-05-01 12:45 | 8.96713 | 38.76603 | 9142 ft | 167 kts | 249° |
| 2026-05-01 12:45 | 8.96356 | 38.75456 | 9431 ft | 177 kts | 252° |
| 2026-05-01 12:46 | 8.96005 | 38.74224 | 9626 ft | 188 kts | 252° |
| 2026-05-01 12:46 | 8.95628 | 38.72918 | 9854 ft | 200 kts | 252° |
| 2026-05-01 12:46 | 8.95165 | 38.71542 | 10071 ft | 213 kts | 247° |
| 2026-05-01 12:46 | 8.94543 | 38.70132 | 10203 ft | 229 kts | 244° |
| 2026-05-01 12:47 | 8.93834 | 38.68629 | 10368 ft | 245 kts | 243° |
| 2026-05-01 12:47 | 8.93066 | 38.67033 | 10573 ft | 259 kts | 243° |
| 2026-05-01 12:47 | 8.92256 | 38.65349 | 10801 ft | 273 kts | 244° |
| 2026-05-01 12:47 | 8.91412 | 38.63580 | 11035 ft | 287 kts | 244° |
| 2026-05-01 12:48 | 8.90512 | 38.61729 | 11275 ft | 300 kts | 242° |
| 2026-05-01 12:48 | 8.89307 | 38.59952 | 11449 ft | 314 kts | 227° |
| 2026-05-01 12:48 | 8.87736 | 38.58684 | 11640 ft | 324 kts | 209° |
| 2026-05-01 12:48 | 8.86231 | 38.57914 | 11813 ft | 332 kts | 204° |
| 2026-05-01 12:49 | 8.84088 | 38.56939 | 12030 ft | 343 kts | 203° |
| 2026-05-01 12:49 | 8.81863 | 38.55947 | 12234 ft | 354 kts | 203° |
| 2026-05-01 12:49 | 8.79581 | 38.54926 | 12425 ft | 365 kts | 203° |
| 2026-05-01 12:49 | 8.77239 | 38.53865 | 12603 ft | 374 kts | 204° |
| 2026-05-01 12:50 | 8.74830 | 38.52764 | 12776 ft | 382 kts | 204° |
| 2026-05-01 12:50 | 8.73219 | 38.52028 | 12969 ft | 385 kts | 204° |
| 2026-05-01 12:50 | 8.70767 | 38.50904 | 13308 ft | 389 kts | 204° |
| 2026-05-01 12:50 | 8.68298 | 38.49772 | 13675 ft | 391 kts | 204° |
| 2026-05-01 12:51 | 8.65811 | 38.48631 | 14021 ft | 393 kts | 204° |
| 2026-05-01 12:51 | 8.63315 | 38.47487 | 14375 ft | 395 kts | 204° |
| 2026-05-01 12:51 | 8.58267 | 38.45172 | 15032 ft | 400 kts | 204° |
| 2026-05-01 12:52 | 8.55726 | 38.44007 | 15367 ft | 402 kts | 204° |
| 2026-05-01 12:52 | 8.50595 | 38.41654 | 16019 ft | 408 kts | 204° |
| 2026-05-01 12:52 | 8.48006 | 38.40467 | 16358 ft | 410 kts | 204° |
| 2026-05-01 12:53 | 8.42772 | 38.38069 | 17009 ft | 416 kts | 204° |
| 2026-05-01 12:53 | 8.40131 | 38.36859 | 17318 ft | 419 kts | 204° |
| 2026-05-01 12:53 | 8.37470 | 38.35640 | 17680 ft | 421 kts | 204° |
| 2026-05-01 12:54 | 8.34799 | 38.34416 | 17993 ft | 424 kts | 204° |
| 2026-05-01 12:54 | 8.29390 | 38.31941 | 18573 ft | 429 kts | 204° |
| 2026-05-01 12:54 | 8.26668 | 38.30694 | 18868 ft | 431 kts | 204° |
| 2026-05-01 12:55 | 8.21199 | 38.28191 | 19461 ft | 433 kts | 204° |
| 2026-05-01 12:55 | 8.18449 | 38.26932 | 19756 ft | 434 kts | 204° |
| 2026-05-01 12:55 | 8.15693 | 38.25670 | 20046 ft | 435 kts | 204° |
| 2026-05-01 12:56 | 8.12931 | 38.24408 | 20339 ft | 437 kts | 204° |
| 2026-05-01 12:56 | 8.10160 | 38.23141 | 20599 ft | 439 kts | 204° |
| 2026-05-01 12:56 | 8.07374 | 38.21867 | 20871 ft | 440 kts | 204° |
| 2026-05-01 12:56 | 8.04578 | 38.20588 | 21151 ft | 442 kts | 204° |
| 2026-05-01 12:57 | 8.01770 | 38.19305 | 21429 ft | 443 kts | 204° |
| 2026-05-01 12:57 | 7.96144 | 38.16733 | 21947 ft | 446 kts | 204° |
| 2026-05-01 12:57 | 7.93315 | 38.15440 | 22207 ft | 447 kts | 204° |
| 2026-05-01 12:58 | 7.90510 | 38.14159 | 22459 ft | 449 kts | 204° |
| 2026-05-01 12:58 | 7.87659 | 38.12857 | 22691 ft | 451 kts | 204° |
| 2026-05-01 12:58 | 7.84797 | 38.11550 | 22945 ft | 452 kts | 204° |
| 2026-05-01 12:59 | 7.79048 | 38.08923 | 23424 ft | 455 kts | 204° |
| 2026-05-01 12:59 | 7.76157 | 38.07604 | 23629 ft | 457 kts | 204° |
| 2026-05-01 12:59 | 7.70309 | 38.05043 | 23998 ft | 459 kts | 199° |
| 2026-05-01 13:00 | 7.64052 | 38.03822 | 24384 ft | 460 kts | 181° |
| 2026-05-01 13:00 | 7.60857 | 38.03975 | 24563 ft | 460 kts | 172° |
| 2026-05-01 13:01 | 7.54741 | 38.05787 | 24938 ft | 460 kts | 153° |
| 2026-05-01 13:01 | 7.51962 | 38.07390 | 25112 ft | 460 kts | 145° |
| 2026-05-01 13:01 | 7.46701 | 38.11105 | 25458 ft | 463 kts | 143° |
| 2026-05-01 13:02 | 7.44071 | 38.12985 | 25669 ft | 464 kts | 143° |
| 2026-05-01 13:07 | 6.86751 | 38.53447 | 29946 ft | 496 kts | 144° |
| 2026-05-01 13:07 | 6.83915 | 38.55444 | 30142 ft | 498 kts | 144° |
| 2026-05-01 13:07 | 6.81079 | 38.57440 | 30326 ft | 499 kts | 144° |
| 2026-05-01 13:08 | 6.78224 | 38.59449 | 30520 ft | 501 kts | 144° |
| 2026-05-01 13:08 | 6.75366 | 38.61460 | 30709 ft | 502 kts | 144° |
| 2026-05-01 13:08 | 6.72496 | 38.63479 | 30910 ft | 504 kts | 144° |
| 2026-05-01 13:08 | 6.69623 | 38.65499 | 31105 ft | 505 kts | 144° |
| 2026-05-01 13:09 | 6.66739 | 38.67528 | 31293 ft | 506 kts | 144° |
| 2026-05-01 13:09 | 6.63849 | 38.69561 | 31482 ft | 508 kts | 144° |
| 2026-05-01 13:09 | 6.60953 | 38.71598 | 31652 ft | 509 kts | 144° |
| 2026-05-01 13:09 | 6.58044 | 38.73643 | 31851 ft | 510 kts | 144° |
| 2026-05-01 13:10 | 6.55129 | 38.75693 | 32005 ft | 512 kts | 144° |
| 2026-05-01 13:10 | 6.52207 | 38.77747 | 32153 ft | 513 kts | 144° |
| 2026-05-01 13:10 | 6.49317 | 38.79778 | 32306 ft | 514 kts | 144° |
| 2026-05-01 13:10 | 6.46382 | 38.81840 | 32468 ft | 516 kts | 144° |
| 2026-05-01 13:11 | 6.43434 | 38.83912 | 32616 ft | 517 kts | 144° |
| 2026-05-01 13:11 | 6.40486 | 38.85983 | 32824 ft | 517 kts | 144° |
| 2026-05-01 13:11 | 6.37541 | 38.88052 | 33042 ft | 517 kts | 144° |
| 2026-05-01 13:11 | 6.34598 | 38.90119 | 33259 ft | 516 kts | 144° |
| 2026-05-01 13:12 | 6.31651 | 38.92189 | 33476 ft | 517 kts | 144° |
| 2026-05-01 13:12 | 6.28711 | 38.94253 | 33723 ft | 516 kts | 145° |
| 2026-05-01 13:12 | 6.25767 | 38.96319 | 33974 ft | 516 kts | 145° |
| 2026-05-01 13:12 | 6.22822 | 38.98387 | 34183 ft | 516 kts | 145° |
| 2026-05-01 13:13 | 6.19884 | 39.00449 | 34436 ft | 514 kts | 145° |
| 2026-05-01 13:13 | 6.16959 | 39.02501 | 34723 ft | 513 kts | 144° |
| 2026-05-01 13:13 | 6.14032 | 39.04554 | 34995 ft | 512 kts | 144° |
| 2026-05-01 13:13 | 6.11119 | 39.06599 | 35269 ft | 511 kts | 144° |
| 2026-05-01 13:14 | 6.08205 | 39.08642 | 35569 ft | 510 kts | 144° |
| 2026-05-01 13:14 | 6.05334 | 39.10655 | 35849 ft | 509 kts | 144° |
| 2026-05-01 13:14 | 6.02438 | 39.12685 | 36162 ft | 507 kts | 144° |
| 2026-05-01 13:14 | 5.99550 | 39.14711 | 36493 ft | 506 kts | 144° |
| 2026-05-01 13:15 | 5.96666 | 39.16733 | 36810 ft | 505 kts | 144° |
| 2026-05-01 13:15 | 5.93790 | 39.18747 | 37119 ft | 503 kts | 144° |
| 2026-05-01 13:15 | 5.90925 | 39.20755 | 37469 ft | 501 kts | 144° |
| 2026-05-01 13:15 | 5.88076 | 39.22752 | 37793 ft | 499 kts | 144° |
| 2026-05-01 13:16 | 5.85229 | 39.24748 | 38115 ft | 498 kts | 144° |
| 2026-05-01 13:16 | 5.82387 | 39.26742 | 38438 ft | 497 kts | 144° |
| 2026-05-01 13:16 | 5.79558 | 39.28725 | 38724 ft | 495 kts | 144° |
| 2026-05-01 13:17 | 5.71100 | 39.34647 | 39387 ft | 494 kts | 144° |
| 2026-05-01 13:17 | 5.68257 | 39.36583 | 39612 ft | 493 kts | 147° |
| 2026-05-01 13:18 | 5.61956 | 39.39277 | 40015 ft | 495 kts | 166° |
| 2026-05-01 13:18 | 5.58590 | 39.39988 | 40230 ft | 494 kts | 168° |
| 2026-05-01 13:18 | 5.55256 | 39.40587 | 40446 ft | 493 kts | 169° |
| 2026-05-01 13:18 | 5.51825 | 39.41155 | 40648 ft | 493 kts | 169° |
| 2026-05-01 13:19 | 5.48486 | 39.41691 | 40846 ft | 492 kts | 169° |
| 2026-05-01 13:19 | 5.45099 | 39.42235 | 40931 ft | 493 kts | 169° |
| 2026-05-01 13:20 | 5.34968 | 39.43906 | 40940 ft | 491 kts | 169° |
| 2026-05-01 13:20 | 5.28227 | 39.45041 | 40933 ft | 491 kts | 169° |
| 2026-05-01 13:21 | 5.18124 | 39.46746 | 40937 ft | 491 kts | 169° |
| 2026-05-01 13:21 | 5.11378 | 39.47883 | 40925 ft | 491 kts | 169° |
| 2026-05-01 13:22 | 5.04650 | 39.49016 | 40923 ft | 491 kts | 169° |
| 2026-05-01 13:22 | 4.97907 | 39.50152 | 40924 ft | 491 kts | 169° |
| 2026-05-01 13:23 | 4.91171 | 39.51286 | 40913 ft | 491 kts | 169° |
| 2026-05-01 13:23 | 4.84439 | 39.52419 | 40914 ft | 491 kts | 169° |
| 2026-05-01 13:24 | 4.77749 | 39.53545 | 40911 ft | 491 kts | 169° |
| 2026-05-01 13:25 | 4.67604 | 39.55248 | 40907 ft | 491 kts | 169° |
| 2026-05-01 13:25 | 4.60905 | 39.56375 | 40913 ft | 491 kts | 169° |
| 2026-05-01 13:26 | 4.54171 | 39.57507 | 40911 ft | 491 kts | 169° |
| 2026-05-01 13:26 | 4.47441 | 39.58639 | 40914 ft | 490 kts | 169° |
| 2026-05-01 13:27 | 4.40707 | 39.59771 | 40918 ft | 490 kts | 169° |
| 2026-05-01 13:27 | 4.30610 | 39.61469 | 40918 ft | 490 kts | 169° |
| 2026-05-01 13:28 | 4.20519 | 39.63165 | 40919 ft | 490 kts | 169° |
| 2026-05-01 13:29 | 4.07116 | 39.65416 | 40923 ft | 490 kts | 169° |
| 2026-05-01 13:31 | 3.86948 | 39.69022 | 40927 ft | 491 kts | 168° |
| 2026-05-01 13:32 | 3.70182 | 39.72200 | 40921 ft | 490 kts | 168° |
| 2026-05-01 13:33 | 3.53465 | 39.75359 | 40914 ft | 490 kts | 168° |
| 2026-05-01 13:34 | 3.40065 | 39.77890 | 40911 ft | 490 kts | 168° |
| 2026-05-01 13:35 | 3.30020 | 39.79787 | 40908 ft | 490 kts | 168° |
| 2026-05-01 13:36 | 3.19981 | 39.81683 | 40904 ft | 489 kts | 168° |
| 2026-05-01 13:36 | 3.09943 | 39.83578 | 40900 ft | 489 kts | 168° |
| 2026-05-01 13:37 | 3.04387 | 39.84627 | 40897 ft | 489 kts | 168° |
| 2026-05-01 13:37 | 2.96572 | 39.86102 | 40895 ft | 489 kts | 168° |
| 2026-05-01 13:38 | 2.86537 | 39.87995 | 40892 ft | 489 kts | 168° |
| 2026-05-01 13:39 | 2.79857 | 39.89256 | 40889 ft | 489 kts | 168° |
| 2026-05-01 13:39 | 2.73169 | 39.90518 | 40890 ft | 489 kts | 168° |
| 2026-05-01 13:40 | 2.66499 | 39.91775 | 40883 ft | 489 kts | 168° |
| 2026-05-01 13:40 | 2.59855 | 39.93029 | 40881 ft | 489 kts | 168° |
| 2026-05-01 13:41 | 2.53168 | 39.94264 | 40882 ft | 489 kts | 168° |
| 2026-05-01 13:41 | 2.46474 | 39.95454 | 40877 ft | 489 kts | 168° |
| 2026-05-01 13:42 | 2.39776 | 39.96640 | 40880 ft | 488 kts | 168° |
| 2026-05-01 13:42 | 2.33081 | 39.97830 | 40874 ft | 489 kts | 168° |
| 2026-05-01 13:43 | 2.26389 | 39.99023 | 40874 ft | 489 kts | 168° |
| 2026-05-01 13:43 | 2.19740 | 40.00209 | 40872 ft | 489 kts | 168° |
| 2026-05-01 13:44 | 2.13049 | 40.01402 | 40870 ft | 488 kts | 168° |
| 2026-05-01 13:44 | 2.06354 | 40.02596 | 40870 ft | 488 kts | 168° |
| 2026-05-01 13:45 | 1.99667 | 40.03788 | 40868 ft | 489 kts | 168° |
| 2026-05-01 13:45 | 1.92971 | 40.04981 | 40864 ft | 489 kts | 168° |
| 2026-05-01 13:46 | 1.86278 | 40.06174 | 40866 ft | 489 kts | 168° |
| 2026-05-01 13:46 | 1.80712 | 40.07166 | 40862 ft | 489 kts | 168° |
| 2026-05-01 13:47 | 1.73961 | 40.08005 | 40858 ft | 491 kts | 178° |
| 2026-05-01 13:47 | 1.67131 | 40.07654 | 40856 ft | 492 kts | 183° |
| 2026-05-01 13:48 | 1.60310 | 40.07051 | 40858 ft | 493 kts | 184° |
| 2026-05-01 13:48 | 1.53480 | 40.06403 | 40858 ft | 493 kts | 184° |
| 2026-05-01 13:49 | 1.46660 | 40.05769 | 40856 ft | 492 kts | 184° |
| 2026-05-01 13:49 | 1.39876 | 40.05152 | 40858 ft | 492 kts | 184° |
| 2026-05-01 13:50 | 1.33051 | 40.04537 | 40856 ft | 493 kts | 184° |
| 2026-05-01 13:50 | 1.26176 | 40.03917 | 40856 ft | 493 kts | 184° |
| 2026-05-01 13:51 | 1.19394 | 40.03304 | 40853 ft | 492 kts | 184° |
| 2026-05-01 13:51 | 1.12578 | 40.02689 | 40853 ft | 492 kts | 184° |
| 2026-05-01 13:52 | 1.05757 | 40.02072 | 40851 ft | 492 kts | 184° |
| 2026-05-01 13:52 | 0.98940 | 40.01456 | 40850 ft | 492 kts | 184° |
| 2026-05-01 13:53 | 0.92116 | 40.00843 | 40850 ft | 492 kts | 184° |
| 2026-05-01 13:53 | 0.81896 | 39.99928 | 40851 ft | 491 kts | 183° |
| 2026-05-01 13:54 | 0.75095 | 39.99320 | 40852 ft | 491 kts | 183° |
| 2026-05-01 13:54 | 0.68337 | 39.98716 | 40848 ft | 491 kts | 183° |
| 2026-05-01 13:55 | 0.61535 | 39.98107 | 40849 ft | 490 kts | 183° |
| 2026-05-01 13:55 | 0.54741 | 39.97499 | 40848 ft | 490 kts | 183° |
| 2026-05-01 13:56 | 0.47939 | 39.96891 | 40850 ft | 490 kts | 183° |
| 2026-05-01 13:56 | 0.41142 | 39.96283 | 40849 ft | 490 kts | 183° |
| 2026-05-01 13:57 | 0.34348 | 39.95675 | 40852 ft | 490 kts | 183° |
| 2026-05-01 13:57 | 0.27551 | 39.95067 | 40854 ft | 490 kts | 183° |
| 2026-05-01 13:58 | 0.20754 | 39.94459 | 40852 ft | 491 kts | 183° |
| 2026-05-01 13:58 | 0.13948 | 39.93850 | 40853 ft | 491 kts | 183° |
| 2026-05-01 13:59 | 0.07190 | 39.93245 | 40851 ft | 491 kts | 183° |
| 2026-05-01 13:59 | 0.00378 | 39.92636 | 40852 ft | 492 kts | 183° |
| 2026-05-01 14:00 | -0.06448 | 39.92025 | 40856 ft | 492 kts | 183° |
| 2026-05-01 14:00 | -0.13274 | 39.91414 | 40857 ft | 492 kts | 183° |
| 2026-05-01 14:01 | -0.20094 | 39.90804 | 40856 ft | 492 kts | 184° |
| 2026-05-01 14:01 | -0.26923 | 39.90193 | 40855 ft | 493 kts | 184° |
| 2026-05-01 14:02 | -0.33759 | 39.89595 | 40855 ft | 493 kts | 183° |
| 2026-05-01 14:02 | -0.40601 | 39.89100 | 40856 ft | 493 kts | 182° |
| 2026-05-01 14:03 | -0.47445 | 39.88655 | 40859 ft | 493 kts | 182° |
| 2026-05-01 14:03 | -0.54289 | 39.88217 | 40860 ft | 493 kts | 182° |
| 2026-05-01 14:04 | -0.61085 | 39.87777 | 40860 ft | 493 kts | 182° |
| 2026-05-01 14:04 | -0.67936 | 39.87329 | 40862 ft | 493 kts | 182° |
| 2026-05-01 14:05 | -0.74782 | 39.86878 | 40862 ft | 494 kts | 182° |
| 2026-05-01 14:05 | -0.81642 | 39.86430 | 40861 ft | 494 kts | 183° |
| 2026-05-01 14:06 | -0.88505 | 39.85979 | 40864 ft | 495 kts | 183° |
| 2026-05-01 14:06 | -0.95381 | 39.85528 | 40867 ft | 496 kts | 183° |
| 2026-05-01 14:07 | -1.02269 | 39.85076 | 40870 ft | 496 kts | 183° |
| 2026-05-01 14:08 | -1.12608 | 39.84396 | 40869 ft | 497 kts | 183° |
| 2026-05-01 14:08 | -1.19512 | 39.83944 | 40869 ft | 497 kts | 183° |
| 2026-05-01 14:09 | -1.26417 | 39.83491 | 40869 ft | 498 kts | 183° |
| 2026-05-01 14:09 | -1.33281 | 39.83041 | 40871 ft | 498 kts | 183° |
| 2026-05-01 14:10 | -1.40199 | 39.82587 | 40872 ft | 498 kts | 183° |
| 2026-05-01 14:10 | -1.47115 | 39.82134 | 40873 ft | 498 kts | 183° |
| 2026-05-01 14:11 | -1.54024 | 39.81680 | 40872 ft | 498 kts | 183° |
| 2026-05-01 14:11 | -1.64389 | 39.81000 | 40876 ft | 498 kts | 183° |
| 2026-05-01 14:12 | -1.71309 | 39.80546 | 40877 ft | 498 kts | 183° |
| 2026-05-01 14:12 | -1.78224 | 39.80092 | 40876 ft | 498 kts | 183° |
| 2026-05-01 14:13 | -1.83954 | 39.79702 | 40878 ft | 498 kts | 183° |
| 2026-05-01 14:13 | -1.91993 | 39.79139 | 40877 ft | 497 kts | 183° |
| 2026-05-01 14:14 | -1.98889 | 39.78656 | 40879 ft | 497 kts | 183° |
| 2026-05-01 14:14 | -2.05793 | 39.78174 | 40878 ft | 497 kts | 183° |
| 2026-05-01 14:15 | -2.12699 | 39.77693 | 40883 ft | 497 kts | 183° |
| 2026-05-01 14:15 | -2.19586 | 39.77213 | 40884 ft | 497 kts | 182° |
| 2026-05-01 14:16 | -2.26482 | 39.76733 | 40884 ft | 496 kts | 182° |
| 2026-05-01 14:16 | -2.33369 | 39.76254 | 40886 ft | 496 kts | 182° |
| 2026-05-01 14:17 | -2.40261 | 39.75774 | 40888 ft | 496 kts | 182° |
| 2026-05-01 14:17 | -2.47143 | 39.75294 | 40891 ft | 496 kts | 182° |
| 2026-05-01 14:18 | -2.54029 | 39.74815 | 40888 ft | 496 kts | 182° |
| 2026-05-01 14:18 | -2.59739 | 39.74417 | 40893 ft | 495 kts | 182° |
| 2026-05-01 14:19 | -2.67788 | 39.73835 | 40893 ft | 496 kts | 182° |
| 2026-05-01 14:19 | -2.74625 | 39.73318 | 40894 ft | 496 kts | 182° |
| 2026-05-01 14:20 | -2.84966 | 39.72536 | 40896 ft | 497 kts | 182° |
| 2026-05-01 14:21 | -2.91859 | 39.72018 | 40895 ft | 498 kts | 182° |
| 2026-05-01 14:21 | -2.98769 | 39.71499 | 40898 ft | 498 kts | 182° |
| 2026-05-01 14:22 | -3.09155 | 39.70719 | 40897 ft | 499 kts | 182° |
| 2026-05-01 14:22 | -3.16092 | 39.70198 | 40897 ft | 500 kts | 182° |
| 2026-05-01 14:23 | -3.23030 | 39.69677 | 40901 ft | 500 kts | 182° |
| 2026-05-01 14:23 | -3.29936 | 39.69158 | 40904 ft | 501 kts | 182° |
| 2026-05-01 14:24 | -3.36941 | 39.68631 | 40907 ft | 501 kts | 182° |
| 2026-05-01 14:24 | -3.43835 | 39.68113 | 40908 ft | 501 kts | 181° |
| 2026-05-01 14:25 | -3.50813 | 39.67588 | 40909 ft | 501 kts | 181° |
| 2026-05-01 14:25 | -3.57766 | 39.67066 | 40912 ft | 501 kts | 181° |
| 2026-05-01 14:26 | -3.68203 | 39.66281 | 40911 ft | 501 kts | 181° |
| 2026-05-01 14:27 | -3.75156 | 39.65759 | 40913 ft | 501 kts | 181° |
| 2026-05-01 14:27 | -3.82091 | 39.65238 | 40914 ft | 500 kts | 181° |
| 2026-05-01 14:28 | -3.92496 | 39.64453 | 40911 ft | 499 kts | 181° |
| 2026-05-01 14:28 | -3.99339 | 39.63454 | 40910 ft | 501 kts | 187° |
| 2026-05-01 14:29 | -4.06199 | 39.62210 | 40910 ft | 501 kts | 188° |
| 2026-05-01 14:30 | -4.19913 | 39.59626 | 40915 ft | 501 kts | 188° |
| 2026-05-01 14:31 | -4.30188 | 39.57689 | 40917 ft | 500 kts | 188° |
| 2026-05-01 14:31 | -4.37032 | 39.56401 | 40921 ft | 500 kts | 188° |
| 2026-05-01 14:32 | -4.43829 | 39.55122 | 40924 ft | 500 kts | 188° |
| 2026-05-01 14:32 | -4.50723 | 39.53825 | 40922 ft | 500 kts | 188° |
| 2026-05-01 14:33 | -4.57512 | 39.52546 | 40927 ft | 500 kts | 188° |
| 2026-05-01 14:33 | -4.64354 | 39.51258 | 40929 ft | 500 kts | 187° |
| 2026-05-01 14:34 | -4.71207 | 39.50104 | 40930 ft | 498 kts | 184° |
| 2026-05-01 14:34 | -4.78095 | 39.49370 | 40930 ft | 497 kts | 182° |
| 2026-05-01 14:35 | -4.84981 | 39.48738 | 40931 ft | 497 kts | 182° |
| 2026-05-01 14:35 | -4.91874 | 39.48127 | 40934 ft | 497 kts | 182° |
| 2026-05-01 14:36 | -4.98753 | 39.47512 | 40933 ft | 497 kts | 182° |
| 2026-05-01 14:36 | -5.05638 | 39.46891 | 40936 ft | 497 kts | 182° |
| 2026-05-01 14:37 | -5.12478 | 39.46272 | 40936 ft | 496 kts | 182° |
| 2026-05-01 14:37 | -5.19356 | 39.45649 | 40939 ft | 496 kts | 182° |
| 2026-05-01 14:38 | -5.26234 | 39.45026 | 40938 ft | 496 kts | 182° |
| 2026-05-01 14:38 | -5.33118 | 39.44403 | 40940 ft | 496 kts | 182° |
| 2026-05-01 14:39 | -5.39992 | 39.43780 | 40944 ft | 496 kts | 182° |
| 2026-05-01 14:39 | -5.46875 | 39.43157 | 40945 ft | 496 kts | 182° |
| 2026-05-01 14:40 | -5.53752 | 39.42534 | 40943 ft | 496 kts | 182° |
| 2026-05-01 14:40 | -5.60632 | 39.41910 | 40947 ft | 496 kts | 182° |
| 2026-05-01 14:41 | -5.67512 | 39.41287 | 40948 ft | 496 kts | 182° |
| 2026-05-01 14:41 | -5.74382 | 39.40664 | 40947 ft | 496 kts | 182° |
| 2026-05-01 14:42 | -5.81249 | 39.40067 | 40947 ft | 494 kts | 180° |
| 2026-05-01 14:42 | -5.86911 | 39.40415 | 40949 ft | 488 kts | 166° |
| 2026-05-01 14:43 | -5.89145 | 39.40960 | 40951 ft | 485 kts | 160° |
| 2026-05-01 14:43 | -5.95253 | 39.43805 | 40950 ft | 479 kts | 148° |
| 2026-05-01 14:44 | -6.00987 | 39.47210 | 40946 ft | 479 kts | 146° |
| 2026-05-01 14:44 | -6.09536 | 39.52428 | 40946 ft | 479 kts | 146° |
| 2026-05-01 14:45 | -6.18117 | 39.57596 | 40949 ft | 479 kts | 147° |
| 2026-05-01 14:46 | -6.23843 | 39.61028 | 40950 ft | 480 kts | 147° |
| 2026-05-01 14:46 | -6.32323 | 39.66284 | 40952 ft | 479 kts | 145° |
| 2026-05-01 14:47 | -6.37948 | 39.69873 | 40954 ft | 479 kts | 145° |
| 2026-05-01 14:48 | -6.46412 | 39.75248 | 40958 ft | 480 kts | 146° |
| 2026-05-01 14:48 | -6.54921 | 39.80541 | 40955 ft | 480 kts | 146° |
| 2026-05-01 14:49 | -6.66289 | 39.87603 | 40957 ft | 480 kts | 146° |
| 2026-05-01 14:50 | -6.77653 | 39.94679 | 40956 ft | 480 kts | 146° |
| 2026-05-01 14:51 | -6.86182 | 39.99991 | 40962 ft | 481 kts | 146° |
| 2026-05-01 14:52 | -6.94718 | 40.05307 | 40962 ft | 481 kts | 146° |
| 2026-05-01 14:53 | -7.03249 | 40.10623 | 40962 ft | 481 kts | 146° |
| 2026-05-01 14:53 | -7.08902 | 40.14147 | 40965 ft | 481 kts | 146° |
| 2026-05-01 14:54 | -7.14600 | 40.17700 | 40964 ft | 482 kts | 146° |
| 2026-05-01 14:54 | -7.20290 | 40.21250 | 40960 ft | 482 kts | 146° |
| 2026-05-01 14:55 | -7.25985 | 40.24802 | 40960 ft | 482 kts | 146° |
| 2026-05-01 14:55 | -7.31695 | 40.28365 | 40963 ft | 482 kts | 146° |
| 2026-05-01 14:56 | -7.37396 | 40.31924 | 40968 ft | 482 kts | 146° |
| 2026-05-01 14:56 | -7.43098 | 40.35484 | 40964 ft | 482 kts | 146° |
| 2026-05-01 14:57 | -7.48806 | 40.39050 | 40964 ft | 483 kts | 146° |
| 2026-05-01 14:57 | -7.57366 | 40.44400 | 40963 ft | 483 kts | 146° |
| 2026-05-01 14:58 | -7.63071 | 40.47967 | 40964 ft | 483 kts | 146° |
| 2026-05-01 14:58 | -7.68785 | 40.51540 | 40967 ft | 483 kts | 146° |
| 2026-05-01 14:59 | -7.74489 | 40.55108 | 40961 ft | 483 kts | 146° |
| 2026-05-01 14:59 | -7.80203 | 40.58684 | 40963 ft | 483 kts | 146° |
| 2026-05-01 15:00 | -7.88683 | 40.64107 | 40968 ft | 483 kts | 145° |
| 2026-05-01 15:01 | -7.94321 | 40.67797 | 40969 ft | 483 kts | 145° |
| 2026-05-01 15:01 | -7.99960 | 40.71487 | 40966 ft | 483 kts | 145° |
| 2026-05-01 15:02 | -8.05605 | 40.75170 | 40968 ft | 483 kts | 145° |
| 2026-05-01 15:02 | -8.11251 | 40.78851 | 40965 ft | 483 kts | 145° |
| 2026-05-01 15:03 | -8.16904 | 40.82537 | 40966 ft | 484 kts | 145° |
| 2026-05-01 15:03 | -8.22590 | 40.86170 | 40972 ft | 484 kts | 146° |
| 2026-05-01 15:04 | -8.28321 | 40.89744 | 40968 ft | 484 kts | 146° |
| 2026-05-01 15:04 | -8.34059 | 40.93307 | 40972 ft | 484 kts | 146° |
| 2026-05-01 15:05 | -8.39797 | 40.96869 | 40969 ft | 484 kts | 146° |
| 2026-05-01 15:05 | -8.45534 | 41.00430 | 40979 ft | 484 kts | 146° |
| 2026-05-01 15:06 | -8.51232 | 41.03968 | 40973 ft | 484 kts | 146° |
| 2026-05-01 15:06 | -8.56965 | 41.07529 | 40969 ft | 484 kts | 146° |
| 2026-05-01 15:07 | -8.62697 | 41.11092 | 40978 ft | 484 kts | 146° |
| 2026-05-01 15:07 | -8.68427 | 41.14653 | 40972 ft | 484 kts | 146° |
| 2026-05-01 15:08 | -8.74161 | 41.18219 | 40971 ft | 484 kts | 146° |
| 2026-05-01 15:08 | -8.79891 | 41.21784 | 40971 ft | 484 kts | 146° |
| 2026-05-01 15:09 | -8.85628 | 41.25354 | 40966 ft | 484 kts | 146° |
| 2026-05-01 15:09 | -8.91362 | 41.28924 | 40987 ft | 484 kts | 146° |
| 2026-05-01 15:10 | -8.97090 | 41.32491 | 40971 ft | 484 kts | 146° |
| 2026-05-01 15:10 | -9.05692 | 41.37851 | 40969 ft | 484 kts | 146° |
| 2026-05-01 15:11 | -9.14296 | 41.43215 | 40976 ft | 484 kts | 146° |
| 2026-05-01 15:12 | -9.20042 | 41.46799 | 40969 ft | 485 kts | 146° |
| 2026-05-01 15:12 | -9.28608 | 41.52145 | 40985 ft | 485 kts | 146° |
| 2026-05-01 15:14 | -9.42977 | 41.61118 | 40984 ft | 485 kts | 146° |
| 2026-05-01 15:14 | -9.51598 | 41.66507 | 40985 ft | 486 kts | 146° |
| 2026-05-01 15:15 | -9.63101 | 41.73702 | 40984 ft | 486 kts | 147° |
| 2026-05-01 15:16 | -9.74603 | 41.80902 | 40990 ft | 486 kts | 147° |
| 2026-05-01 15:18 | -9.88983 | 41.89911 | 40983 ft | 486 kts | 147° |
| 2026-05-01 15:19 | -10.00444 | 41.97098 | 40985 ft | 486 kts | 147° |
| 2026-05-01 15:19 | -10.09065 | 42.02509 | 40986 ft | 486 kts | 147° |
| 2026-05-01 15:20 | -10.17684 | 42.07922 | 40986 ft | 486 kts | 147° |
| 2026-05-01 15:21 | -10.23424 | 42.11528 | 40983 ft | 486 kts | 147° |
| 2026-05-01 15:21 | -10.29175 | 42.15143 | 40993 ft | 486 kts | 147° |
| 2026-05-01 15:22 | -10.37796 | 42.20565 | 40987 ft | 486 kts | 147° |
| 2026-05-01 15:22 | -10.43542 | 42.24181 | 40992 ft | 486 kts | 147° |
| 2026-05-01 15:23 | -10.49282 | 42.27795 | 40985 ft | 486 kts | 147° |
| 2026-05-01 15:23 | -10.55026 | 42.31412 | 40986 ft | 486 kts | 147° |
| 2026-05-01 15:24 | -10.57892 | 42.33218 | 40831 ft | 482 kts | 147° |
| 2026-05-01 15:24 | -10.60743 | 42.35015 | 40135 ft | 483 kts | 147° |
| 2026-05-01 15:24 | -10.63619 | 42.36828 | 39282 ft | 489 kts | 147° |
| 2026-05-01 15:24 | -10.66487 | 42.38637 | 38417 ft | 495 kts | 147° |
| 2026-05-01 15:25 | -10.69428 | 42.40492 | 37516 ft | 499 kts | 147° |
| 2026-05-01 15:25 | -10.72378 | 42.42353 | 36702 ft | 501 kts | 147° |
| 2026-05-01 15:25 | -10.75361 | 42.44194 | 35910 ft | 502 kts | 148° |
| 2026-05-01 15:25 | -10.78391 | 42.45970 | 35118 ft | 504 kts | 149° |
| 2026-05-01 15:26 | -10.81444 | 42.47736 | 34341 ft | 505 kts | 149° |
| 2026-05-01 15:26 | -10.84506 | 42.49497 | 33475 ft | 507 kts | 149° |
| 2026-05-01 15:26 | -10.87584 | 42.51270 | 32482 ft | 510 kts | 149° |
| 2026-05-01 15:26 | -10.90686 | 42.53060 | 31445 ft | 515 kts | 149° |
| 2026-05-01 15:27 | -10.93812 | 42.54868 | 30410 ft | 519 kts | 149° |
| 2026-05-01 15:27 | -10.96974 | 42.56698 | 29290 ft | 523 kts | 149° |
| 2026-05-01 15:27 | -11.00132 | 42.58527 | 28355 ft | 522 kts | 148° |
| 2026-05-01 15:28 | -11.06290 | 42.62095 | 26838 ft | 501 kts | 148° |
| 2026-05-01 15:28 | -11.09308 | 42.63846 | 26143 ft | 497 kts | 148° |
| 2026-05-01 15:28 | -11.12297 | 42.65581 | 25440 ft | 493 kts | 148° |
| 2026-05-01 15:29 | -11.18174 | 42.68995 | 24066 ft | 486 kts | 147° |
| 2026-05-01 15:29 | -11.21095 | 42.70691 | 23341 ft | 482 kts | 147° |
| 2026-05-01 15:29 | -11.26857 | 42.74043 | 21898 ft | 471 kts | 147° |
| 2026-05-01 15:30 | -11.31567 | 42.76782 | 20760 ft | 460 kts | 148° |
| 2026-05-01 15:31 | -11.43132 | 42.83511 | 17821 ft | 428 kts | 148° |
| 2026-05-01 15:31 | -11.48245 | 42.86489 | 16466 ft | 418 kts | 148° |
| 2026-05-01 15:32 | -11.53247 | 42.89401 | 15137 ft | 410 kts | 148° |
| 2026-05-01 15:32 | -11.58152 | 42.92260 | 13813 ft | 402 kts | 148° |
| 2026-05-01 15:33 | -11.65319 | 42.96435 | 11762 ft | 388 kts | 148° |
| 2026-05-01 15:34 | -11.72121 | 43.00399 | 10624 ft | 349 kts | 148° |